hwlogo.jpg (8581 bytes)
Home Your Weather Products Services Weather On Your Site Contact
HW Version Logo
Weather Info
Your Weather (Options)
Canadian Weather
International Weather
Enter your " Place, State", US Zip Code or ICAO:  
Forecast Information Radar Information
Pickle Lake, Canada  Lat: 51.45N, Lon: 90.2W
ICAO Used: CYPL
Current Conditions
Updated: 7:00 PM GMT-7 SUN FEB 18 2018
Sun & Moon Information
Mostly Cloudy
Mostly Cloudy
Temp: -20°C
Humidity: 64%
Wind Speed: NNE 6 MPH
Barometer: 1016 mb
Dewpoint: -25°C
Heat Index: -20°C
Wind Chill: -27°C
Civil Twilight: 5:35 AM GMT-7 Moon Phase:
Waxing Crescent Moon
Sunrise: 6:09 AM GMT-7
Sunset: 4:19 PM GMT-7
Civil Twilight: 4:53 PM GMT-7
Forecast for Pickle Lake, MB, Canada:
(Forecast based on TAF for )
0100 PM GMT-7 SUN FEB 18 2018
  
AFTERNOON EVENING OVERNIGHT
Overcast Overcast Partly
Cloudy
ZoneCast:
Dated: 0100 PM GMT-7 SUN FEB 18 2018
Afternoon...Overcast winds variable in direction at 3 mph.

Evening...Overcast winds variable in direction at 3 mph.

Overnight...Overcast winds variable in direction at 3 mph. Turning partly cloudy with winds from the northeast at 6 mph.

Original Encoded TAF:
Dated: 0100 PM GMT-7 SUN FEB 18 2018
2018/02/18 20:00
TAF CYPL 181938Z 1820/1902 VRB03KT P6SM FEW020 OVC130 
     FM190100 03005KT P6SM FEW040 
      RMK NXT FCST WILL BE ISSUED AT 191245Z